createdAt,value
2018-02-27T00:00:01.117Z,742.67
2018-02-27T00:00:05.354Z,742.68
2018-02-27T00:00:09.372Z,742.7
2018-02-27T00:00:13.523Z,742.7
2018-02-27T00:00:17.668Z,742.69
2018-02-27T00:00:21.800Z,742.67
2018-02-27T00:00:26.051Z,742.64
2018-02-27T00:00:30.091Z,742.71
2018-02-27T00:00:34.225Z,742.68
2018-02-27T00:00:38.365Z,742.7
2018-02-27T00:00:42.266Z,742.67
2018-02-27T00:00:46.282Z,742.7
2018-02-27T00:00:50.417Z,742.68
2018-02-27T00:00:54.447Z,742.66
2018-02-27T00:00:58.569Z,742.7
2018-02-27T00:01:02.608Z,742.68
2018-02-27T00:01:06.629Z,742.66
2018-02-27T00:01:10.636Z,742.69
2018-02-27T00:01:14.764Z,742.75
2018-02-27T00:01:18.912Z,742.75
2018-02-27T00:01:22.932Z,742.75
2018-02-27T00:01:27.151Z,742.74
2018-02-27T00:01:31.414Z,742.74
2018-02-27T00:01:35.337Z,742.74
2018-02-27T00:01:39.608Z,742.75
2018-02-27T00:01:43.889Z,742.71
2018-02-27T00:01:48.095Z,742.76
2018-02-27T00:01:52.227Z,742.77
2018-02-27T00:01:56.373Z,742.76
2018-02-27T00:02:00.298Z,742.79
2018-02-27T00:02:04.845Z,742.74
2018-02-27T00:02:08.868Z,742.78
2018-02-27T00:02:12.884Z,742.76
2018-02-27T00:02:17.217Z,742.79
2018-02-27T00:02:21.337Z,742.79
2018-02-27T00:02:25.350Z,742.79
2018-02-27T00:02:29.474Z,742.79
2018-02-27T00:02:33.725Z,742.79
2018-02-27T00:02:37.769Z,742.78
2018-02-27T00:02:41.885Z,742.78
2018-02-27T00:02:45.900Z,742.8
2018-02-27T00:02:49.926Z,742.81
2018-02-27T00:02:54.055Z,742.79
2018-02-27T00:02:58.073Z,742.81
2018-02-27T00:03:02.570Z,742.83
2018-02-27T00:03:06.487Z,742.81
2018-02-27T00:03:10.510Z,742.83
2018-02-27T00:03:14.509Z,742.79
2018-02-27T00:03:18.756Z,742.82
2018-02-27T00:03:22.821Z,742.84
2018-02-27T00:03:26.737Z,742.82
2018-02-27T00:03:30.956Z,742.83
2018-02-27T00:03:35.093Z,742.79
2018-02-27T00:03:39.005Z,742.8
2018-02-27T00:03:43.243Z,742.85
2018-02-27T00:03:47.049Z,742.85
2018-02-27T00:03:51.389Z,742.84
2018-02-27T00:03:55.511Z,742.85
2018-02-27T00:03:59.431Z,742.85
2018-02-27T00:04:03.920Z,742.85
2018-02-27T00:04:08.282Z,742.88
2018-02-27T00:04:12.621Z,742.88
2018-02-27T00:04:16.966Z,742.86
2018-02-27T00:04:21.197Z,742.86
2018-02-27T00:04:25.357Z,742.85
2018-02-27T00:04:29.384Z,742.86
2018-02-27T00:04:33.403Z,742.85
2018-02-27T00:04:37.636Z,742.87
2018-02-27T00:04:41.784Z,742.88
2018-02-27T00:04:45.918Z,742.87
2018-02-27T00:04:49.833Z,742.88
2018-02-27T00:04:53.745Z,742.87
2018-02-27T00:04:57.788Z,742.84
2018-02-27T00:05:02.103Z,742.87
2018-02-27T00:05:06.231Z,742.87
2018-02-27T00:05:10.258Z,742.89
2018-02-27T00:05:14.067Z,742.89
2018-02-27T00:05:18.221Z,742.88
2018-02-27T00:05:22.572Z,742.89
2018-02-27T00:05:26.767Z,742.87
2018-02-27T00:05:31.006Z,742.87
2018-02-27T00:05:35.223Z,742.85
2018-02-27T00:05:39.355Z,742.86
2018-02-27T00:05:43.486Z,742.87
2018-02-27T00:05:47.730Z,742.91
2018-02-27T00:05:51.959Z,742.86
2018-02-27T00:05:55.969Z,742.9
2018-02-27T00:06:00.212Z,742.9
2018-02-27T00:06:04.222Z,742.89
2018-02-27T00:06:08.238Z,742.91
2018-02-27T00:06:12.577Z,742.88
2018-02-27T00:06:16.860Z,742.88
2018-02-27T00:06:21.211Z,742.92
2018-02-27T00:06:25.242Z,742.91
2018-02-27T00:06:29.375Z,742.9
2018-02-27T00:06:33.283Z,742.89
2018-02-27T00:06:37.512Z,742.89
2018-02-27T00:06:41.653Z,742.9
2018-02-27T00:06:46.000Z,742.92
2018-02-27T00:06:50.034Z,742.9
2018-02-27T00:06:54.367Z,742.93
2018-02-27T00:06:58.401Z,742.89
2018-02-27T00:07:02.753Z,742.91
2018-02-27T00:07:06.996Z,742.93
2018-02-27T00:07:11.333Z,742.95
2018-02-27T00:07:15.484Z,742.9
2018-02-27T00:07:19.408Z,742.91
2018-02-27T00:07:23.539Z,742.89
2018-02-27T00:07:27.692Z,742.89
2018-02-27T00:07:31.932Z,742.87
2018-02-27T00:07:35.950Z,742.87
2018-02-27T00:07:40.088Z,742.89
2018-02-27T00:07:44.117Z,742.86
2018-02-27T00:07:48.151Z,742.88
2018-02-27T00:07:52.073Z,742.91
2018-02-27T00:07:56.116Z,742.9
2018-02-27T00:08:00.032Z,742.87
2018-02-27T00:08:04.418Z,742.9
2018-02-27T00:08:08.436Z,742.9
2018-02-27T00:08:12.374Z,742.9
2018-02-27T00:08:16.495Z,742.91
2018-02-27T00:08:20.744Z,742.89
2018-02-27T00:08:24.874Z,742.9
2018-02-27T00:08:28.894Z,742.92
2018-02-27T00:08:32.921Z,742.9
2018-02-27T00:08:36.952Z,742.92
2018-02-27T00:08:41.079Z,742.9
2018-02-27T00:08:45.311Z,742.91
2018-02-27T00:08:49.461Z,742.9
2018-02-27T00:08:53.155Z,742.9
2018-02-27T00:08:57.289Z,742.9
2018-02-27T00:09:01.424Z,742.92
2018-02-27T00:09:05.645Z,742.9
2018-02-27T00:09:09.766Z,742.92
2018-02-27T00:09:13.800Z,742.89
2018-02-27T00:09:18.040Z,742.9
2018-02-27T00:09:22.276Z,742.92
2018-02-27T00:09:26.471Z,742.89
2018-02-27T00:09:30.493Z,742.92
2018-02-27T00:09:34.622Z,742.9
2018-02-27T00:09:38.763Z,742.9
2018-02-27T00:09:42.782Z,742.93
2018-02-27T00:09:46.792Z,742.9
2018-02-27T00:09:50.702Z,742.9
2018-02-27T00:09:54.619Z,742.97
2018-02-27T00:09:58.530Z,742.98
2018-02-27T00:10:02.642Z,742.96
2018-02-27T00:10:06.669Z,742.93
2018-02-27T00:10:10.808Z,742.95
2018-02-27T00:10:14.616Z,742.95
2018-02-27T00:10:18.746Z,742.95
2018-02-27T00:10:22.766Z,742.96
2018-02-27T00:10:27.146Z,742.98
2018-02-27T00:10:31.167Z,742.99
2018-02-27T00:10:35.423Z,742.98
2018-02-27T00:10:39.666Z,742.96
2018-02-27T00:10:43.909Z,743
2018-02-27T00:10:48.047Z,742.96
2018-02-27T00:10:52.074Z,742.98
2018-02-27T00:10:56.110Z,742.96
2018-02-27T00:11:00.133Z,742.95
2018-02-27T00:11:04.255Z,742.97
2018-02-27T00:11:08.186Z,742.91
2018-02-27T00:11:12.206Z,742.95
2018-02-27T00:11:16.443Z,742.96
2018-02-27T00:11:20.789Z,742.99
2018-02-27T00:11:24.915Z,742.97
2018-02-27T00:11:29.153Z,742.96
2018-02-27T00:11:33.183Z,742.94
2018-02-27T00:11:37.535Z,742.97
2018-02-27T00:11:41.555Z,742.91
2018-02-27T00:11:45.588Z,742.92
2018-02-27T00:11:49.829Z,742.96
2018-02-27T00:11:54.083Z,742.95
2018-02-27T00:11:58.346Z,742.98
2018-02-27T00:12:02.521Z,742.89
2018-02-27T00:12:06.747Z,742.91
2018-02-27T00:12:10.881Z,742.89
2018-02-27T00:12:15.019Z,742.9
2018-02-27T00:12:19.276Z,742.89
2018-02-27T00:12:23.514Z,742.89
2018-02-27T00:12:27.757Z,742.92
2018-02-27T00:12:31.564Z,742.89
2018-02-27T00:12:35.498Z,742.91
2018-02-27T00:12:39.629Z,742.86
2018-02-27T00:12:43.664Z,742.87
2018-02-27T00:12:47.781Z,742.91
2018-02-27T00:12:51.822Z,742.92
2018-02-27T00:12:55.727Z,742.9
2018-02-27T00:12:59.631Z,742.92
2018-02-27T00:13:03.544Z,742.92
2018-02-27T00:13:07.459Z,742.91
2018-02-27T00:13:11.590Z,742.92
2018-02-27T00:13:15.505Z,742.89
2018-02-27T00:13:19.426Z,742.89
2018-02-27T00:13:23.551Z,742.89
2018-02-27T00:13:27.883Z,742.93
2018-02-27T00:13:31.904Z,742.93
2018-02-27T00:13:35.916Z,742.88
2018-02-27T00:13:40.035Z,742.89
2018-02-27T00:13:44.401Z,742.9
2018-02-27T00:13:48.414Z,742.92
2018-02-27T00:13:52.428Z,742.91
2018-02-27T00:13:56.671Z,742.94
2018-02-27T00:14:00.803Z,742.93
2018-02-27T00:14:04.818Z,742.9
2018-02-27T00:14:08.830Z,742.9
2018-02-27T00:14:13.053Z,742.96
2018-02-27T00:14:16.842Z,742.93
2018-02-27T00:14:20.965Z,742.96
2018-02-27T00:14:25.211Z,742.94
2018-02-27T00:14:29.141Z,742.94
2018-02-27T00:14:33.279Z,742.93
2018-02-27T00:14:37.303Z,742.93
2018-02-27T00:14:41.217Z,742.91
2018-02-27T00:14:45.240Z,742.92
2018-02-27T00:14:49.488Z,742.94
2018-02-27T00:14:53.514Z,742.94
2018-02-27T00:14:57.428Z,742.91
2018-02-27T00:15:01.754Z,742.92
2018-02-27T00:15:05.771Z,742.93
2018-02-27T00:15:09.801Z,742.93
2018-02-27T00:15:14.036Z,742.94
2018-02-27T00:15:17.832Z,742.91
2018-02-27T00:15:22.064Z,742.94
2018-02-27T00:15:26.297Z,742.96
2018-02-27T00:15:30.406Z,742.94
2018-02-27T00:15:34.634Z,742.96
2018-02-27T00:15:38.861Z,742.95
2018-02-27T00:15:42.895Z,742.92
2018-02-27T00:15:47.042Z,742.91
2018-02-27T00:15:50.843Z,742.89
2018-02-27T00:15:55.081Z,742.91
2018-02-27T00:15:59.208Z,742.9
2018-02-27T00:16:03.461Z,742.89
2018-02-27T00:16:07.592Z,742.94
2018-02-27T00:16:11.617Z,742.9
2018-02-27T00:16:15.731Z,742.92
2018-02-27T00:16:19.522Z,742.92
2018-02-27T00:16:23.881Z,742.94
2018-02-27T00:16:28.020Z,742.9
2018-02-27T00:16:32.246Z,742.9
2018-02-27T00:16:36.470Z,742.91
2018-02-27T00:16:40.696Z,742.89
2018-02-27T00:16:44.621Z,742.87
2018-02-27T00:16:48.621Z,742.86
2018-02-27T00:16:52.855Z,742.84
2018-02-27T00:16:56.986Z,742.86
2018-02-27T00:17:01.102Z,742.83
2018-02-27T00:17:05.221Z,742.9
2018-02-27T00:17:09.470Z,742.84
2018-02-27T00:17:13.724Z,742.85
2018-02-27T00:17:17.857Z,742.89
2018-02-27T00:17:22.082Z,742.91
2018-02-27T00:17:26.130Z,742.91
2018-02-27T00:17:30.069Z,742.91
2018-02-27T00:17:34.420Z,742.91
2018-02-27T00:17:38.440Z,742.91
2018-02-27T00:17:42.797Z,742.89
2018-02-27T00:17:46.937Z,742.94
2018-02-27T00:17:51.174Z,742.9
2018-02-27T00:17:55.311Z,742.91
2018-02-27T00:17:59.240Z,742.9
2018-02-27T00:18:03.403Z,742.89
2018-02-27T00:18:07.638Z,742.88
2018-02-27T00:18:11.995Z,742.91
2018-02-27T00:18:16.132Z,742.87
2018-02-27T00:18:20.352Z,742.85
2018-02-27T00:18:24.377Z,742.9
2018-02-27T00:18:28.294Z,742.91
2018-02-27T00:18:32.318Z,742.92
2018-02-27T00:18:36.676Z,742.89
2018-02-27T00:18:40.809Z,742.91
2018-02-27T00:18:44.828Z,742.93
2018-02-27T00:18:48.861Z,742.87
2018-02-27T00:18:53.096Z,742.89
2018-02-27T00:18:57.434Z,742.87
2018-02-27T00:19:01.578Z,742.89
2018-02-27T00:19:05.820Z,742.9
2018-02-27T00:19:09.866Z,742.91
2018-02-27T00:19:14.213Z,742.88
2018-02-27T00:19:18.030Z,742.9
2018-02-27T00:19:22.373Z,742.89
2018-02-27T00:19:26.389Z,742.87
2018-02-27T00:19:30.402Z,742.87
2018-02-27T00:19:34.447Z,742.89
2018-02-27T00:19:38.685Z,742.89
2018-02-27T00:19:42.815Z,742.92
2018-02-27T00:19:46.836Z,742.87
2018-02-27T00:19:50.758Z,742.89
2018-02-27T00:19:54.787Z,742.88
2018-02-27T00:19:58.580Z,742.9
2018-02-27T00:20:02.616Z,742.86
2018-02-27T00:20:06.866Z,742.87
2018-02-27T00:20:11.207Z,742.86
2018-02-27T00:20:15.431Z,742.88
2018-02-27T00:20:19.346Z,742.89
2018-02-27T00:20:23.593Z,742.86
2018-02-27T00:20:27.828Z,742.87
2018-02-27T00:20:31.862Z,742.88
2018-02-27T00:20:35.885Z,742.91
2018-02-27T00:20:39.895Z,742.84
2018-02-27T00:20:44.020Z,742.86
2018-02-27T00:20:48.045Z,742.83
2018-02-27T00:20:52.203Z,742.84
2018-02-27T00:20:56.231Z,742.81
2018-02-27T00:21:00.345Z,742.85
2018-02-27T00:21:04.514Z,742.84
2018-02-27T00:21:08.476Z,742.83
2018-02-27T00:21:12.619Z,742.83
2018-02-27T00:21:16.762Z,742.83
2018-02-27T00:21:20.791Z,742.85
2018-02-27T00:21:25.045Z,742.83
2018-02-27T00:21:29.398Z,742.83
2018-02-27T00:21:33.531Z,742.81
2018-02-27T00:21:37.674Z,742.84
2018-02-27T00:21:41.809Z,742.81
2018-02-27T00:21:45.933Z,742.83
2018-02-27T00:21:49.951Z,742.86
2018-02-27T00:21:53.970Z,742.84
2018-02-27T00:21:57.901Z,742.85
2018-02-27T00:22:02.118Z,742.85
2018-02-27T00:22:06.254Z,742.89
2018-02-27T00:22:10.378Z,742.89
2018-02-27T00:22:14.532Z,742.87
2018-02-27T00:22:18.888Z,742.88
2018-02-27T00:22:23.117Z,742.84
2018-02-27T00:22:27.249Z,742.85
2018-02-27T00:22:31.274Z,742.88
2018-02-27T00:22:35.302Z,742.88
2018-02-27T00:22:39.427Z,742.87
2018-02-27T00:22:43.792Z,742.89
2018-02-27T00:22:48.019Z,742.88
2018-02-27T00:22:52.152Z,742.83
2018-02-27T00:22:56.285Z,742.86
2018-02-27T00:23:00.413Z,742.86
2018-02-27T00:23:04.745Z,742.87
2018-02-27T00:23:08.765Z,742.86
2018-02-27T00:23:12.679Z,742.88
2018-02-27T00:23:16.593Z,742.86
2018-02-27T00:23:20.840Z,742.9
2018-02-27T00:23:25.080Z,742.86
2018-02-27T00:23:29.319Z,742.86
2018-02-27T00:23:33.452Z,742.88
2018-02-27T00:23:37.685Z,742.88
2018-02-27T00:23:41.704Z,742.88
2018-02-27T00:23:45.828Z,742.89
2018-02-27T00:23:49.974Z,742.91
2018-02-27T00:23:54.005Z,742.85
2018-02-27T00:23:58.149Z,742.88
2018-02-27T00:24:02.060Z,742.91
2018-02-27T00:24:06.423Z,742.87
2018-02-27T00:24:10.554Z,742.88
2018-02-27T00:24:14.567Z,742.87
2018-02-27T00:24:18.917Z,742.85
2018-02-27T00:24:23.144Z,742.86
2018-02-27T00:24:27.172Z,742.86
2018-02-27T00:24:31.077Z,742.89
2018-02-27T00:24:35.191Z,742.86
2018-02-27T00:24:39.315Z,742.85
2018-02-27T00:24:43.550Z,742.8
2018-02-27T00:24:47.676Z,742.8
2018-02-27T00:24:51.703Z,742.82
2018-02-27T00:24:55.939Z,742.82
2018-02-27T00:25:00.088Z,742.83
2018-02-27T00:25:04.002Z,742.84
2018-02-27T00:25:08.281Z,742.85
2018-02-27T00:25:12.312Z,742.82
2018-02-27T00:25:16.317Z,742.83
2018-02-27T00:25:20.451Z,742.81
2018-02-27T00:25:24.463Z,742.8
2018-02-27T00:25:28.499Z,742.82
2018-02-27T00:25:32.521Z,742.86
2018-02-27T00:25:36.646Z,742.85
2018-02-27T00:25:40.892Z,742.89
2018-02-27T00:25:44.930Z,742.88
2018-02-27T00:25:49.284Z,742.88
2018-02-27T00:25:53.534Z,742.9
2018-02-27T00:25:57.780Z,742.87
2018-02-27T00:26:02.019Z,742.87
2018-02-27T00:26:06.185Z,742.88
2018-02-27T00:26:10.202Z,742.85
2018-02-27T00:26:14.497Z,742.87
2018-02-27T00:26:18.621Z,742.9
2018-02-27T00:26:22.860Z,742.87
2018-02-27T00:26:27.094Z,742.88
2018-02-27T00:26:31.437Z,742.87
2018-02-27T00:26:35.702Z,742.91
2018-02-27T00:26:39.820Z,742.9
2018-02-27T00:26:43.848Z,742.87
2018-02-27T00:26:48.077Z,742.86
2018-02-27T00:26:52.321Z,742.93
2018-02-27T00:26:56.251Z,742.92
2018-02-27T00:27:00.596Z,742.9
2018-02-27T00:27:04.833Z,742.9
2018-02-27T00:27:08.954Z,742.88
2018-02-27T00:27:13.192Z,742.89
2018-02-27T00:27:17.222Z,742.91
2018-02-27T00:27:21.454Z,742.88
2018-02-27T00:27:25.700Z,742.86
2018-02-27T00:27:29.758Z,742.86
2018-02-27T00:27:33.694Z,742.88
2018-02-27T00:27:37.931Z,742.92
2018-02-27T00:27:42.177Z,742.9
2018-02-27T00:27:46.362Z,742.89
2018-02-27T00:27:50.497Z,742.88
2018-02-27T00:27:54.836Z,742.89
2018-02-27T00:27:58.978Z,742.9
2018-02-27T00:28:03.327Z,742.88
2018-02-27T00:28:07.463Z,742.89
2018-02-27T00:28:11.708Z,742.91
2018-02-27T00:28:15.732Z,742.92
2018-02-27T00:28:19.872Z,742.86
2018-02-27T00:28:23.787Z,742.83
2018-02-27T00:28:27.905Z,742.9
2018-02-27T00:28:31.912Z,742.88
2018-02-27T00:28:36.036Z,742.84
2018-02-27T00:28:40.159Z,742.9
2018-02-27T00:28:44.072Z,742.87
2018-02-27T00:28:48.194Z,742.89
2018-02-27T00:28:52.209Z,742.85
2018-02-27T00:28:56.560Z,742.86
2018-02-27T00:29:00.480Z,742.86
2018-02-27T00:29:04.576Z,742.86
2018-02-27T00:29:08.894Z,742.93
2018-02-27T00:29:13.168Z,742.89
2018-02-27T00:29:17.416Z,742.92
2018-02-27T00:29:21.653Z,742.96
2018-02-27T00:29:25.845Z,742.93
2018-02-27T00:29:29.648Z,742.92
2018-02-27T00:29:33.898Z,742.91
2018-02-27T00:29:38.128Z,742.91
2018-02-27T00:29:42.147Z,742.91
2018-02-27T00:29:46.400Z,742.94
2018-02-27T00:29:50.522Z,742.93
2018-02-27T00:29:54.541Z,742.92
2018-02-27T00:29:58.458Z,742.95
2018-02-27T00:30:02.628Z,742.95
2018-02-27T00:30:06.574Z,742.96
2018-02-27T00:30:10.703Z,742.95
2018-02-27T00:30:14.848Z,742.95
2018-02-27T00:30:18.981Z,742.98
2018-02-27T00:30:23.225Z,742.95
2018-02-27T00:30:27.462Z,742.97
2018-02-27T00:30:31.698Z,742.94
2018-02-27T00:30:35.824Z,742.93
2018-02-27T00:30:39.744Z,742.92
2018-02-27T00:30:43.769Z,742.97
2018-02-27T00:30:47.790Z,742.96
2018-02-27T00:30:51.915Z,742.97
2018-02-27T00:30:55.817Z,742.95
2018-02-27T00:30:59.836Z,742.99
2018-02-27T00:31:04.001Z,742.93
2018-02-27T00:31:08.147Z,742.93
2018-02-27T00:31:12.072Z,742.98
2018-02-27T00:31:16.233Z,742.95
2018-02-27T00:31:20.429Z,742.95
2018-02-27T00:31:24.772Z,742.97
2018-02-27T00:31:29.116Z,742.95
2018-02-27T00:31:33.147Z,742.97
2018-02-27T00:31:37.274Z,742.96
2018-02-27T00:31:41.544Z,742.94
2018-02-27T00:31:45.893Z,742.96
2018-02-27T00:31:50.248Z,743
2018-02-27T00:31:54.504Z,742.94
2018-02-27T00:31:58.543Z,742.99
2018-02-27T00:32:02.352Z,742.97
2018-02-27T00:32:06.593Z,742.98
2018-02-27T00:32:10.612Z,742.97
2018-02-27T00:32:14.851Z,742.93
2018-02-27T00:32:18.772Z,743.01
2018-02-27T00:32:23.008Z,742.99
2018-02-27T00:32:27.251Z,742.95
2018-02-27T00:32:31.278Z,742.98
2018-02-27T00:32:35.344Z,742.97
2018-02-27T00:32:39.362Z,742.98
2018-02-27T00:32:43.514Z,743.02
2018-02-27T00:32:47.765Z,742.94
2018-02-27T00:32:51.790Z,742.98
2018-02-27T00:32:56.034Z,743
2018-02-27T00:33:00.275Z,742.99
2018-02-27T00:33:04.605Z,743.04
2018-02-27T00:33:08.545Z,742.99
2018-02-27T00:33:12.583Z,743.01
2018-02-27T00:33:16.488Z,743
2018-02-27T00:33:20.721Z,743.04
2018-02-27T00:33:25.078Z,743.01
2018-02-27T00:33:29.217Z,743.01
2018-02-27T00:33:33.239Z,743.02
2018-02-27T00:33:37.258Z,743
2018-02-27T00:33:41.485Z,742.99
2018-02-27T00:33:45.817Z,743.01
2018-02-27T00:33:50.051Z,742.96
2018-02-27T00:33:54.187Z,743.04
2018-02-27T00:33:58.128Z,742.99
2018-02-27T00:34:02.102Z,743.02
2018-02-27T00:34:06.244Z,743.03
2018-02-27T00:34:10.279Z,743.07
2018-02-27T00:34:14.538Z,743.03
2018-02-27T00:34:18.557Z,743.05
2018-02-27T00:34:22.680Z,743.06
2018-02-27T00:34:26.706Z,743.01
2018-02-27T00:34:30.620Z,743.04
2018-02-27T00:34:34.644Z,743.06
2018-02-27T00:34:38.674Z,743.07
2018-02-27T00:34:42.807Z,743.03
2018-02-27T00:34:46.828Z,743.03
2018-02-27T00:34:50.867Z,743.05
2018-02-27T00:34:54.911Z,743.03
2018-02-27T00:34:59.024Z,743.09
2018-02-27T00:35:03.168Z,743.07
2018-02-27T00:35:07.314Z,743.07
2018-02-27T00:35:11.566Z,743.04
2018-02-27T00:35:15.683Z,743.03
2018-02-27T00:35:19.932Z,743.07
2018-02-27T00:35:24.174Z,743.08
2018-02-27T00:35:27.967Z,743.08
2018-02-27T00:35:31.884Z,743.06
2018-02-27T00:35:36.018Z,743.08
2018-02-27T00:35:40.040Z,743.1
2018-02-27T00:35:44.077Z,743.04
2018-02-27T00:35:48.089Z,743.09
2018-02-27T00:35:52.323Z,743.09
2018-02-27T00:35:56.477Z,743.09
2018-02-27T00:36:00.606Z,743.12
2018-02-27T00:36:04.787Z,743.11
2018-02-27T00:36:08.908Z,743.13
2018-02-27T00:36:13.129Z,743.09
2018-02-27T00:36:17.044Z,743.06
2018-02-27T00:36:21.074Z,743.08
2018-02-27T00:36:25.204Z,743.1
2018-02-27T00:36:29.354Z,743.08
2018-02-27T00:36:33.492Z,743.08
2018-02-27T00:36:37.625Z,743.09
2018-02-27T00:36:41.782Z,743.12
2018-02-27T00:36:45.928Z,743.1
2018-02-27T00:36:49.903Z,743.09
2018-02-27T00:36:54.262Z,743.08
2018-02-27T00:36:58.280Z,743.09
2018-02-27T00:37:02.623Z,743.11
2018-02-27T00:37:06.753Z,743.11
2018-02-27T00:37:10.904Z,743.09
2018-02-27T00:37:15.033Z,743.13
2018-02-27T00:37:19.169Z,743.14
2018-02-27T00:37:23.307Z,743.1
2018-02-27T00:37:27.444Z,743.11
2018-02-27T00:37:31.474Z,743.09
2018-02-27T00:37:35.708Z,743.21
2018-02-27T00:37:39.523Z,743.2
2018-02-27T00:37:43.750Z,743.18
2018-02-27T00:37:47.883Z,743.13
2018-02-27T00:37:51.804Z,743.15
2018-02-27T00:37:55.853Z,743.11
2018-02-27T00:38:00.080Z,743.13
2018-02-27T00:38:04.094Z,743.16
2018-02-27T00:38:08.331Z,743.18
2018-02-27T00:38:12.444Z,743.16
2018-02-27T00:38:16.587Z,743.16
2018-02-27T00:38:20.601Z,743.1
2018-02-27T00:38:24.624Z,743.17
2018-02-27T00:38:28.869Z,743.12
2018-02-27T00:38:32.809Z,743.17
2018-02-27T00:38:37.045Z,743.14
2018-02-27T00:38:40.860Z,743.13
2018-02-27T00:38:44.928Z,743.12
2018-02-27T00:38:48.955Z,743.16
2018-02-27T00:38:53.189Z,743.14
2018-02-27T00:38:57.333Z,743.19
2018-02-27T00:39:01.465Z,743.2
2018-02-27T00:39:05.864Z,743.2
2018-02-27T00:39:09.873Z,743.17
2018-02-27T00:39:14.285Z,743.22
2018-02-27T00:39:18.412Z,743.2
2018-02-27T00:39:22.641Z,743.17
2018-02-27T00:39:26.589Z,743.17
2018-02-27T00:39:30.518Z,743.15
2018-02-27T00:39:34.781Z,743.18
2018-02-27T00:39:38.897Z,743.17
2018-02-27T00:39:43.087Z,743.16
2018-02-27T00:39:47.129Z,743.19
2018-02-27T00:39:51.391Z,743.22
2018-02-27T00:39:55.625Z,743.2
2018-02-27T00:39:59.862Z,743.18
2018-02-27T00:40:04.102Z,743.19
2018-02-27T00:40:08.033Z,743.21
2018-02-27T00:40:12.386Z,743.2
2018-02-27T00:40:16.308Z,743.2
2018-02-27T00:40:20.456Z,743.24
2018-02-27T00:40:24.696Z,743.23
2018-02-27T00:40:28.935Z,743.2
2018-02-27T00:40:33.156Z,743.23
2018-02-27T00:40:37.492Z,743.25
2018-02-27T00:40:41.619Z,743.21
2018-02-27T00:40:45.849Z,743.2
2018-02-27T00:40:50.094Z,743.22
2018-02-27T00:40:54.318Z,743.22
2018-02-27T00:40:58.565Z,743.22
2018-02-27T00:41:02.592Z,743.24
2018-02-27T00:41:06.508Z,743.27
2018-02-27T00:41:10.862Z,743.2
2018-02-27T00:41:14.988Z,743.22
2018-02-27T00:41:19.222Z,743.23
2018-02-27T00:41:23.340Z,743.22
2018-02-27T00:41:27.475Z,743.24
2018-02-27T00:41:31.495Z,743.23
2018-02-27T00:41:35.527Z,743.27
2018-02-27T00:41:39.546Z,743.27
2018-02-27T00:41:43.672Z,743.25
2018-02-27T00:41:48.017Z,743.23
2018-02-27T00:41:52.165Z,743.25
2018-02-27T00:41:56.390Z,743.3
2018-02-27T00:42:00.518Z,743.27
2018-02-27T00:42:04.701Z,743.25
2018-02-27T00:42:08.941Z,743.21
2018-02-27T00:42:13.088Z,743.22
2018-02-27T00:42:17.425Z,743.26
2018-02-27T00:42:21.555Z,743.24
2018-02-27T00:42:25.677Z,743.28
2018-02-27T00:42:29.700Z,743.22
2018-02-27T00:42:33.878Z,743.25
2018-02-27T00:42:37.690Z,743.27
2018-02-27T00:42:41.825Z,743.32
2018-02-27T00:42:46.048Z,743.32
2018-02-27T00:42:50.181Z,743.28
2018-02-27T00:42:54.530Z,743.27
2018-02-27T00:42:58.768Z,743.3
2018-02-27T00:43:02.794Z,743.27
2018-02-27T00:43:06.600Z,743.26
2018-02-27T00:43:10.819Z,743.32
2018-02-27T00:43:14.956Z,743.29
2018-02-27T00:43:18.773Z,743.3
2018-02-27T00:43:22.578Z,743.28
2018-02-27T00:43:26.596Z,743.26
2018-02-27T00:43:30.740Z,743.32
2018-02-27T00:43:34.872Z,743.37
2018-02-27T00:43:39.007Z,743.34
2018-02-27T00:43:43.040Z,743.3
2018-02-27T00:43:47.171Z,743.28
2018-02-27T00:43:51.205Z,743.32
2018-02-27T00:43:55.338Z,743.34
2018-02-27T00:43:59.603Z,743.35
2018-02-27T00:44:03.684Z,743.31
2018-02-27T00:44:07.602Z,743.32
2018-02-27T00:44:11.776Z,743.31
2018-02-27T00:44:16.011Z,743.34
2018-02-27T00:44:20.036Z,743.37
2018-02-27T00:44:24.280Z,743.33
2018-02-27T00:44:28.229Z,743.36
2018-02-27T00:44:32.363Z,743.34
2018-02-27T00:44:36.488Z,743.36
2018-02-27T00:44:40.527Z,743.35
2018-02-27T00:44:44.641Z,743.37
2018-02-27T00:44:48.880Z,743.35
2018-02-27T00:44:53.216Z,743.34
2018-02-27T00:44:57.334Z,743.36
2018-02-27T00:45:01.356Z,743.35
2018-02-27T00:45:05.393Z,743.35
2018-02-27T00:45:09.540Z,743.37
2018-02-27T00:45:13.656Z,743.35
2018-02-27T00:45:17.779Z,743.38
2018-02-27T00:45:22.027Z,743.36
2018-02-27T00:45:26.280Z,743.36
2018-02-27T00:45:30.464Z,743.39
2018-02-27T00:45:34.595Z,743.37
2018-02-27T00:45:38.830Z,743.38
2018-02-27T00:45:42.967Z,743.39
2018-02-27T00:45:47.192Z,743.39
2018-02-27T00:45:51.433Z,743.42
2018-02-27T00:45:55.574Z,743.38
2018-02-27T00:45:59.588Z,743.41
2018-02-27T00:46:03.723Z,743.37
2018-02-27T00:46:08.077Z,743.38
2018-02-27T00:46:12.418Z,743.41
2018-02-27T00:46:16.550Z,743.38
2018-02-27T00:46:20.701Z,743.39
2018-02-27T00:46:24.940Z,743.41
2018-02-27T00:46:29.067Z,743.41
2018-02-27T00:46:33.093Z,743.4
2018-02-27T00:46:37.098Z,743.39
2018-02-27T00:46:41.117Z,743.41
2018-02-27T00:46:45.358Z,743.42
2018-02-27T00:46:49.281Z,743.4
2018-02-27T00:46:53.308Z,743.4
2018-02-27T00:46:57.355Z,743.44
2018-02-27T00:47:01.258Z,743.41
2018-02-27T00:47:05.758Z,743.43
2018-02-27T00:47:09.898Z,743.47
2018-02-27T00:47:14.123Z,743.44
2018-02-27T00:47:18.137Z,743.43
2018-02-27T00:47:22.268Z,743.43
2018-02-27T00:47:26.516Z,743.45
2018-02-27T00:47:30.655Z,743.43
2018-02-27T00:47:34.785Z,743.45
2018-02-27T00:47:38.793Z,743.44
2018-02-27T00:47:42.705Z,743.45
2018-02-27T00:47:47.068Z,743.45
2018-02-27T00:47:51.454Z,743.45
2018-02-27T00:47:55.690Z,743.45
2018-02-27T00:47:59.721Z,743.43
2018-02-27T00:48:03.854Z,743.45
2018-02-27T00:48:08.120Z,743.42
2018-02-27T00:48:12.365Z,743.47
2018-02-27T00:48:16.388Z,743.47
2018-02-27T00:48:20.744Z,743.44
2018-02-27T00:48:24.765Z,743.48
2018-02-27T00:48:28.454Z,743.5
2018-02-27T00:48:32.810Z,743.44
2018-02-27T00:48:36.836Z,743.49
2018-02-27T00:48:41.069Z,743.48
2018-02-27T00:48:44.985Z,743.46
2018-02-27T00:48:49.027Z,743.48
2018-02-27T00:48:53.656Z,743.51
2018-02-27T00:48:57.540Z,743.47
2018-02-27T00:49:01.879Z,743.51
2018-02-27T00:49:05.907Z,743.48
2018-02-27T00:49:10.138Z,743.5
2018-02-27T00:49:14.497Z,743.51
2018-02-27T00:49:18.747Z,743.52
2018-02-27T00:49:22.972Z,743.52
2018-02-27T00:49:27.108Z,743.52
2018-02-27T00:49:31.142Z,743.52
2018-02-27T00:49:35.274Z,743.48
2018-02-27T00:49:39.315Z,743.48
2018-02-27T00:49:43.334Z,743.47
2018-02-27T00:49:47.564Z,743.46
2018-02-27T00:49:51.587Z,743.5
2018-02-27T00:49:55.730Z,743.48
2018-02-27T00:49:59.756Z,743.49
2018-02-27T00:50:04.094Z,743.48
2018-02-27T00:50:08.005Z,743.46
2018-02-27T00:50:12.135Z,743.47
2018-02-27T00:50:16.383Z,743.49
2018-02-27T00:50:20.409Z,743.52
2018-02-27T00:50:24.540Z,743.52
2018-02-27T00:50:28.681Z,743.53
2018-02-27T00:50:32.815Z,743.56
2018-02-27T00:50:36.942Z,743.59
2018-02-27T00:50:41.181Z,743.56
2018-02-27T00:50:45.420Z,743.56
2018-02-27T00:50:49.558Z,743.56
2018-02-27T00:50:53.706Z,743.55
2018-02-27T00:50:57.834Z,743.57
2018-02-27T00:51:01.863Z,743.57
2018-02-27T00:51:06.348Z,743.59
2018-02-27T00:51:10.388Z,743.58
2018-02-27T00:51:14.536Z,743.57
2018-02-27T00:51:18.904Z,743.57
2018-02-27T00:51:23.040Z,743.6
2018-02-27T00:51:27.280Z,743.6
2018-02-27T00:51:31.540Z,743.59
2018-02-27T00:51:35.671Z,743.59
2018-02-27T00:51:39.562Z,743.57